createdAt,value
2022-10-25T00:00:54.893Z,1000.2
2022-10-25T00:01:56.132Z,1000.2
2022-10-25T00:02:57.955Z,1000.2
2022-10-25T00:03:59.280Z,1000.3
2022-10-25T00:05:01.133Z,1000.2
2022-10-25T00:06:03.232Z,1000.2
2022-10-25T00:07:05.053Z,1000.2
2022-10-25T00:08:06.913Z,1000.2
2022-10-25T00:09:07.893Z,1000.2
2022-10-25T00:10:09.273Z,1000.2
2022-10-25T00:11:11.708Z,1000.2
2022-10-25T00:12:12.996Z,1000.2
2022-10-25T00:13:14.343Z,1000.2
2022-10-25T00:14:16.293Z,1000.2
2022-10-25T00:15:17.915Z,1000.2
2022-10-25T00:16:19.774Z,1000
2022-10-25T00:17:21.014Z,1000.2
2022-10-25T00:18:23.073Z,1000.2
2022-10-25T00:19:24.912Z,1000.3
2022-10-25T00:20:26.254Z,1000.2
2022-10-25T00:21:27.926Z,1000.3
2022-10-25T00:22:28.953Z,1000.2
2022-10-25T00:23:30.222Z,1000.3
2022-10-25T00:24:31.973Z,1000.3
2022-10-25T00:25:32.962Z,1000.3
2022-10-25T00:26:33.940Z,1000.3
2022-10-25T00:27:34.952Z,1000.3
2022-10-25T00:28:36.116Z,1000.3
2022-10-25T00:29:38.258Z,1000.3
2022-10-25T00:30:40.002Z,1000.3
2022-10-25T00:31:41.977Z,1000.3
2022-10-25T00:32:44.161Z,1000.2
2022-10-25T00:33:45.042Z,1000.2
2022-10-25T00:34:46.897Z,1000.2
2022-10-25T00:35:47.960Z,1000.2
2022-10-25T00:36:48.914Z,1000.2
2022-10-25T00:37:49.995Z,1000.2
2022-10-25T00:38:50.914Z,1000.2
2022-10-25T00:39:52.114Z,1000.3
2022-10-25T00:40:53.933Z,1000.2
2022-10-25T00:41:54.933Z,999.7
2022-10-25T00:42:55.933Z,1000.1
2022-10-25T00:43:57.313Z,1000.2
2022-10-25T00:44:59.394Z,1000.2
2022-10-25T00:47:03.295Z,1000.3
2022-10-25T00:48:05.161Z,1000.2
2022-10-25T00:49:07.353Z,1000.2
2022-10-25T00:50:09.023Z,1000.2
2022-10-25T00:51:10.061Z,999.7
2022-10-25T00:52:12.001Z,1000.1
2022-10-25T00:53:12.914Z,1000.2
2022-10-25T00:54:14.037Z,1000
2022-10-25T00:55:15.082Z,1000.2
2022-10-25T00:56:17.052Z,1000.2
2022-10-25T00:57:19.439Z,1000.2
2022-10-25T00:58:21.053Z,1000.3
2022-10-25T00:59:22.953Z,1000.3
2022-10-25T01:00:24.113Z,1000.2
2022-10-25T01:01:27.864Z,1000.3
2022-10-25T01:02:29.041Z,1000.3
2022-10-25T01:03:31.014Z,1000.2
2022-10-25T01:04:33.055Z,1000.2
2022-10-25T01:05:35.473Z,1000.2
2022-10-25T01:06:37.465Z,1000.2
2022-10-25T01:07:39.013Z,1000.2
2022-10-25T01:08:41.001Z,1000.2
2022-10-25T01:09:42.955Z,1000.2
2022-10-25T01:10:44.111Z,1000.2
2022-10-25T01:11:46.063Z,1000.2
2022-10-25T01:12:50.058Z,1000.2
2022-10-25T01:13:49.973Z,1000.2
2022-10-25T01:14:50.955Z,1000.1
2022-10-25T01:15:52.553Z,1000.2
2022-10-25T01:16:53.933Z,1000.2
2022-10-25T01:17:55.413Z,1000.1
2022-10-25T01:18:57.025Z,1000.1
2022-10-25T01:19:58.088Z,1000.1
2022-10-25T01:21:00.154Z,1000.1
2022-10-25T01:22:02.033Z,1000.1
2022-10-25T01:23:04.012Z,1000.2
2022-10-25T01:24:06.013Z,1000.1
2022-10-25T01:25:07.972Z,1000.1
2022-10-25T01:26:09.959Z,1000.1
2022-10-25T01:27:11.542Z,1000.1
2022-10-25T01:28:12.970Z,1000.1
2022-10-25T01:29:13.993Z,1000
2022-10-25T01:30:15.017Z,1000.1
2022-10-25T01:31:16.448Z,1000.1
2022-10-25T01:32:18.186Z,1000.1
2022-10-25T01:33:20.014Z,1000.1
2022-10-25T01:34:22.033Z,1000.1
2022-10-25T01:35:23.937Z,1000.1
2022-10-25T01:36:27.002Z,1000.1
2022-10-25T01:37:28.116Z,1000.1
2022-10-25T01:38:30.520Z,1000.2
2022-10-25T01:39:31.973Z,1000.2
2022-10-25T01:40:32.952Z,1000.2
2022-10-25T01:41:34.055Z,1000.2
2022-10-25T01:42:36.034Z,1000.2
2022-10-25T01:43:38.257Z,1000.2
2022-10-25T01:44:40.051Z,1000.2
2022-10-25T01:45:42.001Z,1000.2
2022-10-25T01:46:43.330Z,1000.1
2022-10-25T01:47:45.257Z,1000.2
2022-10-25T01:48:47.474Z,1000.2
2022-10-25T01:49:52.434Z,1000.2
2022-10-25T01:50:54.014Z,1000.2
2022-10-25T01:51:56.414Z,1000.2
2022-10-25T01:52:58.015Z,1000.3
2022-10-25T01:53:58.980Z,1000.3
2022-10-25T01:54:59.981Z,1000.3
2022-10-25T01:56:01.194Z,1000.4
2022-10-25T01:57:03.771Z,1000.3
2022-10-25T01:58:05.676Z,1000.2
2022-10-25T01:59:07.284Z,1000.2
2022-10-25T02:00:09.351Z,1000.2
2022-10-25T02:04:17.072Z,1000.1
2022-10-25T02:05:17.998Z,1000.2
2022-10-25T02:06:19.012Z,1000.2
2022-10-25T02:07:20.992Z,1000.2
2022-10-25T02:08:22.012Z,1000.2
2022-10-25T02:09:22.992Z,1000.2
2022-10-25T02:10:23.993Z,1000.2
2022-10-25T02:11:24.994Z,1000.2
2022-10-25T02:12:25.956Z,1000.1
2022-10-25T02:13:26.973Z,1000.2
2022-10-25T02:14:28.101Z,1000.2
2022-10-25T02:15:29.019Z,1000.2
2022-10-25T02:16:31.152Z,1000.2
2022-10-25T02:17:33.000Z,1000.3
2022-10-25T02:18:34.181Z,1000.3
2022-10-25T02:19:36.751Z,1000.3
2022-10-25T02:20:39.908Z,1000.3
2022-10-25T02:21:39.733Z,1000.3
2022-10-25T02:22:41.201Z,1000.3
2022-10-25T02:23:42.968Z,1000.3
2022-10-25T02:24:44.014Z,1000.3
2022-10-25T02:25:45.075Z,1000.2
2022-10-25T02:26:46.406Z,1000.2
2022-10-25T02:27:48.209Z,1000.2
2022-10-25T02:28:48.973Z,1000.2
2022-10-25T02:29:50.138Z,1000.2
2022-10-25T02:30:52.013Z,1000
2022-10-25T02:31:53.048Z,1000.3
2022-10-25T02:32:54.212Z,1000.3
2022-10-25T02:33:56.212Z,1000.2
2022-10-25T02:34:57.974Z,1000.2
2022-10-25T02:35:59.252Z,1000.2
2022-10-25T02:37:01.260Z,1000.2
2022-10-25T02:38:03.113Z,1000.2
2022-10-25T02:39:05.033Z,1000.2
2022-10-25T02:40:07.112Z,1000.2
2022-10-25T02:41:08.993Z,1000.2
2022-10-25T02:42:10.074Z,1000.2
2022-10-25T02:43:12.325Z,1000.3
2022-10-25T02:44:13.995Z,1000.2
2022-10-25T02:45:15.798Z,1000.3
2022-10-25T02:46:17.020Z,1000.2
2022-10-25T02:47:18.020Z,1000.2
2022-10-25T02:48:19.292Z,1000.2
2022-10-25T02:49:21.213Z,1000.3
2022-10-25T02:50:23.112Z,1000.2
2022-10-25T02:51:24.992Z,1000.2
2022-10-25T02:52:26.252Z,1000.2
2022-10-25T02:53:28.012Z,1000.2
2022-10-25T02:54:29.041Z,1000.3
2022-10-25T02:55:30.977Z,1000.4
2022-10-25T02:56:32.111Z,1000.4
2022-10-25T02:57:34.101Z,1000.4
2022-10-25T02:58:36.021Z,1000.3
2022-10-25T02:59:37.034Z,1000.3
2022-10-25T03:00:38.128Z,1000.3
2022-10-25T03:01:40.440Z,1000.3
2022-10-25T03:02:42.132Z,1000.4
2022-10-25T03:03:44.060Z,1000.4
2022-10-25T03:04:46.172Z,1000.3
2022-10-25T03:05:48.480Z,1000.3
2022-10-25T03:06:50.040Z,1000.4
2022-10-25T03:07:52.031Z,1000.4
2022-10-25T03:08:53.032Z,1000.4
2022-10-25T03:09:53.993Z,1000.4
2022-10-25T03:10:55.051Z,1000.4
2022-10-25T03:11:56.022Z,1000.4
2022-10-25T03:12:58.094Z,1000.4
2022-10-25T03:14:00.012Z,1000.4
2022-10-25T03:15:01.192Z,1000.3
2022-10-25T03:16:03.136Z,1000.3
2022-10-25T03:17:05.412Z,1000.4
2022-10-25T03:18:07.091Z,1000.3
2022-10-25T03:19:09.013Z,1000.3
2022-10-25T03:20:10.214Z,1000.3
2022-10-25T03:21:12.053Z,1000.3
2022-10-25T03:22:13.727Z,1000.4
2022-10-25T03:23:15.130Z,1000.3
2022-10-25T03:24:17.051Z,1000.3
2022-10-25T03:25:18.652Z,1000.3
2022-10-25T03:26:20.453Z,1000.3
2022-10-25T03:27:22.438Z,1000.4
2022-10-25T03:28:24.011Z,1000.3
2022-10-25T03:29:25.033Z,1000.3
2022-10-25T03:30:26.272Z,1000.3
2022-10-25T03:31:29.620Z,1000.4
2022-10-25T03:32:31.079Z,1000.4
2022-10-25T03:33:32.120Z,1000.2
2022-10-25T03:34:34.034Z,1000.3
2022-10-25T03:35:35.074Z,1000.3
2022-10-25T03:36:36.232Z,1000.3
2022-10-25T03:37:38.072Z,1000.3
2022-10-25T03:38:39.253Z,1000.3
2022-10-25T03:39:42.021Z,1000.2
2022-10-25T03:40:43.033Z,1000.2
2022-10-25T03:41:44.359Z,1000.2
2022-10-25T03:42:46.453Z,1000.2
2022-10-25T03:43:48.573Z,1000.3
2022-10-25T03:44:50.354Z,1000.2
2022-10-25T03:45:52.571Z,1000.2
2022-10-25T03:46:54.097Z,1000.2
2022-10-25T03:47:55.032Z,1000.2
2022-10-25T03:48:56.052Z,1000.2
2022-10-25T03:49:57.093Z,1000.2
2022-10-25T03:50:58.513Z,1000.2
2022-10-25T03:52:01.362Z,1000.2
2022-10-25T03:53:02.168Z,1000.2
2022-10-25T03:54:03.093Z,1000.3
2022-10-25T03:55:04.395Z,1000.3
2022-10-25T03:56:06.397Z,1000.3
2022-10-25T03:57:08.673Z,1000.2
2022-10-25T03:58:10.042Z,1000.2
2022-10-25T03:59:11.068Z,1000.2
2022-10-25T04:00:12.092Z,1000.2
2022-10-25T04:01:13.149Z,1000.2
2022-10-25T04:02:14.196Z,1000.2
2022-10-25T04:03:16.093Z,1000.3
2022-10-25T04:04:17.680Z,1000.3
2022-10-25T04:05:19.074Z,1000.3
2022-10-25T04:06:21.408Z,1000.3
2022-10-25T04:07:23.214Z,1000.3
2022-10-25T04:08:25.674Z,1000.3
2022-10-25T04:09:27.443Z,1000.3
2022-10-25T04:10:29.149Z,1000.3
2022-10-25T04:11:31.533Z,1000.3
2022-10-25T04:12:34.140Z,1000.3
2022-10-25T04:13:36.893Z,1000.3
2022-10-25T04:14:38.152Z,1000.3
2022-10-25T04:15:39.115Z,1000.3
2022-10-25T04:16:40.082Z,1000.3
2022-10-25T04:17:41.778Z,1000.3
2022-10-25T04:18:43.920Z,1000.3
2022-10-25T04:19:45.093Z,1000.3
2022-10-25T04:20:46.121Z,1000.3
2022-10-25T04:21:47.380Z,1000.3
2022-10-25T04:22:50.452Z,1000.3
2022-10-25T04:23:52.521Z,1000.3
2022-10-25T04:24:54.232Z,1000.3
2022-10-25T04:25:56.132Z,1000.4
2022-10-25T04:26:57.071Z,1000.4
2022-10-25T04:27:58.973Z,1000.4
2022-10-25T04:29:00.089Z,1000.3
2022-10-25T04:30:01.180Z,1000.4
2022-10-25T04:31:03.115Z,1000.4
2022-10-25T04:32:04.317Z,1000.4
2022-10-25T04:33:06.246Z,1000.4
2022-10-25T04:34:08.082Z,1000.4
2022-10-25T04:35:09.142Z,1000.3
2022-10-25T04:36:10.114Z,1000.4
2022-10-25T04:37:12.112Z,1000.5
2022-10-25T04:38:14.112Z,1000.4
2022-10-25T04:39:15.122Z,1000.4
2022-10-25T04:40:20.045Z,1000.4
2022-10-25T04:41:19.219Z,1000.4
2022-10-25T04:42:21.233Z,1000.3
2022-10-25T04:43:23.356Z,999.8
2022-10-25T04:44:25.442Z,1000.2
2022-10-25T04:45:27.152Z,1000.3
2022-10-25T04:46:29.411Z,1000.4
2022-10-25T04:47:31.232Z,1000.4
2022-10-25T04:48:33.216Z,1000.3
2022-10-25T04:49:35.712Z,1000.3
2022-10-25T04:50:37.211Z,1000.4
2022-10-25T04:51:39.122Z,1000.4
2022-10-25T04:52:40.112Z,1000.4
2022-10-25T04:53:42.115Z,1000.4
2022-10-25T04:54:43.039Z,1000.4
2022-10-25T04:55:45.145Z,1000.4
2022-10-25T04:56:46.096Z,1000.4
2022-10-25T04:57:47.095Z,1000.4
2022-10-25T04:58:49.254Z,1000.4
2022-10-25T04:59:51.204Z,1000.4
2022-10-25T05:00:53.213Z,1000.4
2022-10-25T05:01:57.114Z,1000.4
2022-10-25T05:02:58.196Z,1000.4
2022-10-25T05:04:00.196Z,1000.4
2022-10-25T05:05:02.193Z,1000.4
2022-10-25T05:06:04.152Z,1000.4
2022-10-25T05:07:05.232Z,1000.4
2022-10-25T05:08:07.153Z,1000.4
2022-10-25T05:09:09.133Z,1000.4
2022-10-25T05:10:10.129Z,1000.4
2022-10-25T05:11:12.632Z,1000.6
2022-10-25T05:12:14.334Z,1000.5
2022-10-25T05:13:16.553Z,1000.5
2022-10-25T05:14:18.353Z,1000.5
2022-10-25T05:15:20.779Z,1000.5
2022-10-25T05:16:23.012Z,1000.5
2022-10-25T05:17:24.192Z,1000.5
2022-10-25T05:18:27.473Z,1000.5
2022-10-25T05:19:29.378Z,1000.6
2022-10-25T05:20:31.643Z,1000.7
2022-10-25T05:21:33.178Z,1000.6
2022-10-25T05:22:35.193Z,1000.6
2022-10-25T05:23:37.036Z,1000.6
2022-10-25T05:24:38.153Z,1000.6
2022-10-25T05:25:40.393Z,1000.7
2022-10-25T05:26:43.513Z,1000.7
2022-10-25T05:27:45.840Z,1000.6
2022-10-25T05:28:47.173Z,1000.7
2022-10-25T05:29:48.393Z,1000.7
2022-10-25T05:30:50.212Z,1000.7
2022-10-25T05:31:52.714Z,1000.7
2022-10-25T05:32:54.193Z,1000.7
2022-10-25T05:33:55.152Z,1000.7
2022-10-25T05:34:57.177Z,1000.7
2022-10-25T05:35:59.195Z,1000.7
2022-10-25T05:37:00.132Z,1000.7
2022-10-25T05:38:01.186Z,1000.7
2022-10-25T05:39:03.193Z,1000.7
2022-10-25T05:40:05.172Z,1000.7
2022-10-25T05:41:06.557Z,1000.7
2022-10-25T05:42:08.569Z,1000.7
2022-10-25T05:43:10.098Z,1000.8
2022-10-25T05:44:11.042Z,1000.3
2022-10-25T05:45:13.956Z,1000.6
2022-10-25T05:46:15.078Z,1000.6
2022-10-25T05:47:16.488Z,1000.7
2022-10-25T05:48:18.876Z,1000.7
2022-10-25T05:49:20.089Z,1000.7
2022-10-25T05:50:21.239Z,1000.7
2022-10-25T05:51:38.300Z,1000.7
2022-10-25T05:52:24.132Z,1000.8
2022-10-25T05:53:25.134Z,1000.8
2022-10-25T05:54:26.433Z,1000.8
2022-10-25T05:55:28.353Z,1000.8
2022-10-25T05:56:30.421Z,1000.8
2022-10-25T05:57:32.413Z,1000.8
2022-10-25T05:58:34.121Z,1000.8
2022-10-25T05:59:35.673Z,1000.8
2022-10-25T06:01:39.373Z,1000.9
2022-10-25T06:02:40.113Z,1000.9
2022-10-25T06:03:41.573Z,1000.9
2022-10-25T06:04:43.173Z,1000.9
2022-10-25T06:05:44.917Z,1000.9
2022-10-25T06:06:46.513Z,1000.9
2022-10-25T06:07:48.153Z,1001
2022-10-25T06:08:49.279Z,1001
2022-10-25T06:09:51.176Z,1001
2022-10-25T06:10:52.493Z,1001
2022-10-25T06:11:55.072Z,1001.1
2022-10-25T06:12:56.153Z,1001.1
2022-10-25T06:13:57.154Z,1001.1
2022-10-25T06:14:58.154Z,1001.1
2022-10-25T06:15:59.154Z,1000.6
2022-10-25T06:17:00.158Z,1000.7
2022-10-25T06:18:01.541Z,1001.1
2022-10-25T06:19:04.599Z,1001.2
2022-10-25T06:20:06.176Z,1001.2
2022-10-25T06:21:07.198Z,1001.2
2022-10-25T06:22:08.092Z,1001.2
2022-10-25T06:23:10.547Z,1001.2
2022-10-25T06:24:12.153Z,1001.2
2022-10-25T06:25:13.373Z,1001.2
2022-10-25T06:26:15.173Z,1001.2
2022-10-25T06:27:16.192Z,1001.2
2022-10-25T06:28:17.497Z,1001.2
2022-10-25T06:29:19.181Z,1001.2
2022-10-25T06:30:21.322Z,1001.2
2022-10-25T06:31:23.152Z,1001.2
2022-10-25T06:32:24.184Z,1001.2
2022-10-25T06:33:27.179Z,1001.3
2022-10-25T06:34:26.671Z,1001.3
2022-10-25T06:35:28.160Z,1001.3
2022-10-25T06:36:29.182Z,1001.3
2022-10-25T06:37:30.165Z,1001.3
2022-10-25T06:38:32.220Z,1001.3
2022-10-25T06:39:34.199Z,1001.3
2022-10-25T06:40:36.393Z,1001.4
2022-10-25T06:41:38.493Z,1001.3
2022-10-25T06:42:40.452Z,1001.3
2022-10-25T06:43:42.153Z,1001.4
2022-10-25T06:44:43.151Z,1001.4
2022-10-25T06:45:44.793Z,1001.4
2022-10-25T06:47:15.689Z,1001.4
2022-10-25T06:47:48.420Z,1001.4
2022-10-25T06:48:50.563Z,1001.4
2022-10-25T06:49:52.582Z,1001.4
2022-10-25T06:50:55.177Z,1001.4
2022-10-25T06:51:56.575Z,1001.4
2022-10-25T06:52:58.312Z,1001.4
2022-10-25T06:54:00.213Z,1001.4
2022-10-25T06:55:01.214Z,1001.4
2022-10-25T06:56:04.408Z,1001.5
2022-10-25T06:57:04.212Z,1001.5
2022-10-25T06:58:06.912Z,1001.5
2022-10-25T06:59:08.133Z,1001.4
2022-10-25T07:00:09.232Z,1001.4
2022-10-25T07:01:11.278Z,1000.9
2022-10-25T07:02:12.290Z,1001.3
2022-10-25T07:03:14.192Z,1001.5
2022-10-25T07:04:16.015Z,1001.5
2022-10-25T07:05:17.151Z,1001.4
2022-10-25T07:06:18.205Z,1001.5
2022-10-25T07:07:19.199Z,1001.4
2022-10-25T07:08:20.892Z,1001.3
2022-10-25T07:09:22.574Z,1001.4
2022-10-25T07:10:24.409Z,1001.5
2022-10-25T07:11:26.572Z,1001.5
2022-10-25T07:12:28.220Z,1001.5
2022-10-25T07:13:30.134Z,1001.5
2022-10-25T07:14:33.274Z,1001.5
2022-10-25T07:15:36.353Z,1001.5
2022-10-25T07:16:36.333Z,1001.5
2022-10-25T07:17:38.474Z,1001.5
2022-10-25T07:18:40.732Z,1001.5
2022-10-25T07:19:42.209Z,1001.5
2022-10-25T07:20:43.218Z,1001.5
2022-10-25T07:21:44.332Z,1001.5
2022-10-25T07:22:46.356Z,1001.6
2022-10-25T07:23:48.812Z,1001.6
2022-10-25T07:24:50.197Z,1001.6
2022-10-25T07:25:52.192Z,1001.6
2022-10-25T07:26:53.653Z,1001.6
2022-10-25T07:27:55.152Z,1001.6
2022-10-25T07:28:56.204Z,1001.6
2022-10-25T07:29:57.153Z,1001.6
2022-10-25T07:30:58.452Z,1001.6
2022-10-25T07:32:00.213Z,1001.6
2022-10-25T07:33:01.250Z,1001.6
2022-10-25T07:34:03.212Z,1001.6
2022-10-25T07:35:05.210Z,1001.6
2022-10-25T07:36:10.912Z,1001.6
2022-10-25T07:37:08.194Z,1001.6
2022-10-25T07:38:10.091Z,1001.6
2022-10-25T07:39:11.236Z,1001.6
2022-10-25T07:40:12.222Z,1001.6
2022-10-25T07:41:13.238Z,1001.6
2022-10-25T07:42:15.752Z,1001.6
2022-10-25T07:43:17.292Z,1001.6
2022-10-25T07:44:22.631Z,1001.6
2022-10-25T07:45:22.961Z,1001.6
2022-10-25T07:46:22.192Z,1001.1
2022-10-25T07:47:23.812Z,1001.5
2022-10-25T07:48:25.273Z,1001.6
2022-10-25T07:49:27.252Z,1001.6
2022-10-25T07:50:28.425Z,1001.7
2022-10-25T07:51:30.513Z,1001.6
2022-10-25T07:52:32.414Z,1001.7
2022-10-25T07:53:35.016Z,1001.7
2022-10-25T07:54:36.829Z,1001.7
2022-10-25T07:55:38.233Z,1001.7
2022-10-25T07:56:39.233Z,1001.6
2022-10-25T07:57:40.671Z,1001.6
2022-10-25T07:58:42.183Z,1001.7
2022-10-25T07:59:43.642Z,1001.7
2022-10-25T08:00:45.146Z,1001.7
2022-10-25T08:01:46.237Z,1001.7
2022-10-25T08:02:47.826Z,1001.7
2022-10-25T08:03:49.401Z,1001.8
2022-10-25T08:04:52.325Z,1001.7
2022-10-25T08:05:52.252Z,1001.7
2022-10-25T08:06:54.075Z,1001.7
2022-10-25T08:07:55.212Z,1001.8
2022-10-25T08:08:56.236Z,1001.8
2022-10-25T08:09:57.592Z,1001.7
2022-10-25T08:10:59.454Z,1001.7
2022-10-25T08:12:01.721Z,1001.8
2022-10-25T08:13:03.243Z,1001.7
2022-10-25T08:14:05.033Z,1001.7
2022-10-25T08:15:06.338Z,1001.7
2022-10-25T08:16:08.372Z,1001.7
2022-10-25T08:17:10.632Z,1001.7
2022-10-25T08:18:12.234Z,1001.7
2022-10-25T08:19:13.261Z,1001.7
2022-10-25T08:20:14.287Z,1001.7
2022-10-25T08:21:16.653Z,1001.7
2022-10-25T08:22:19.077Z,1001.8
2022-10-25T08:23:20.212Z,1001.7
2022-10-25T08:24:21.204Z,1001.7
2022-10-25T08:25:22.523Z,1001.7
2022-10-25T08:26:23.233Z,1001.8
2022-10-25T08:27:24.413Z,1001.8
2022-10-25T08:28:26.400Z,1001.8
2022-10-25T08:29:28.272Z,1001.8
2022-10-25T08:30:29.632Z,1001.8
2022-10-25T08:31:31.233Z,1001.9
2022-10-25T08:32:32.178Z,1001.8
2022-10-25T08:33:33.252Z,1001.8
2022-10-25T08:34:35.207Z,1001.9
2022-10-25T08:35:36.372Z,1001.8
2022-10-25T08:36:38.374Z,1001.9
2022-10-25T08:37:40.254Z,1001.8
2022-10-25T08:38:41.293Z,1001.8
2022-10-25T08:39:43.579Z,1001.8
2022-10-25T08:40:45.553Z,1001.8
2022-10-25T08:41:47.232Z,1001.8
2022-10-25T08:42:48.173Z,1001.8
2022-10-25T08:43:49.627Z,1001.9
2022-10-25T08:44:51.234Z,1001.9
2022-10-25T08:45:52.720Z,1001.9
2022-10-25T08:46:54.233Z,1001.9
2022-10-25T08:47:55.192Z,1001.8
2022-10-25T08:48:56.252Z,1001.8
2022-10-25T08:49:57.167Z,1001.9
2022-10-25T08:50:58.296Z,1001.8
2022-10-25T08:52:00.293Z,1001.8
2022-10-25T08:53:02.874Z,1001.9
2022-10-25T08:54:04.402Z,1001.8
2022-10-25T08:55:06.443Z,1001.9
2022-10-25T08:56:16.875Z,1001.9
2022-10-25T08:57:15.327Z,1001.9
2022-10-25T08:58:13.034Z,1001.8
2022-10-25T08:59:14.533Z,1001.9
2022-10-25T09:00:16.493Z,1001.9
2022-10-25T09:01:18.522Z,1001.8
2022-10-25T09:02:20.406Z,1001.8
2022-10-25T09:03:22.278Z,1001.8
2022-10-25T09:04:23.250Z,1001.9
2022-10-25T09:05:25.032Z,1001.8
2022-10-25T09:06:26.296Z,1001.8
2022-10-25T09:07:27.252Z,1001.8
2022-10-25T09:08:28.769Z,1001.8
2022-10-25T09:09:30.633Z,1001.8
2022-10-25T09:10:32.317Z,1001.8
2022-10-25T09:11:33.303Z,1001.8
2022-10-25T09:12:34.234Z,1001.8
2022-10-25T09:14:36.412Z,1001.8
2022-10-25T09:15:40.358Z,1001.8
2022-10-25T09:16:40.258Z,1001.8
2022-10-25T09:17:41.273Z,1001.8
2022-10-25T09:18:42.212Z,1001.8
2022-10-25T09:19:44.295Z,1001.8
2022-10-25T09:20:46.332Z,1001.8
2022-10-25T09:21:48.313Z,1001.9
2022-10-25T09:22:49.633Z,1001.9
2022-10-25T09:23:53.953Z,1001.9
2022-10-25T09:24:56.874Z,1001.9
2022-10-25T09:25:57.280Z,1001.9
2022-10-25T09:26:58.234Z,1001.9
2022-10-25T09:27:59.294Z,1001.9
2022-10-25T09:29:01.691Z,1001.9
2022-10-25T09:30:05.008Z,1001.9
2022-10-25T09:31:05.667Z,1001.9
2022-10-25T09:32:07.384Z,1001.9
2022-10-25T09:33:10.163Z,1002
2022-10-25T09:34:11.273Z,1002
2022-10-25T09:35:12.212Z,1001.4
2022-10-25T09:36:13.212Z,1001.8
2022-10-25T09:37:14.237Z,1002
2022-10-25T09:38:16.074Z,1002
2022-10-25T09:39:17.332Z,1002
2022-10-25T09:40:19.275Z,1002
2022-10-25T09:41:20.308Z,1002
2022-10-25T09:42:21.314Z,1002
2022-10-25T09:43:23.598Z,1001.9
2022-10-25T09:44:25.310Z,1002
2022-10-25T09:45:26.333Z,1002
2022-10-25T09:46:28.251Z,1002
2022-10-25T09:47:29.246Z,1002.1
2022-10-25T09:48:30.473Z,1001.6
2022-10-25T09:49:32.752Z,1001.9
2022-10-25T09:50:34.492Z,1002
2022-10-25T09:51:36.332Z,1002
2022-10-25T09:52:38.393Z,1002
2022-10-25T09:53:40.434Z,1002
2022-10-25T09:54:42.282Z,1002
2022-10-25T09:55:43.353Z,1002
2022-10-25T09:56:45.731Z,1002
2022-10-25T09:57:47.805Z,1002
2022-10-25T09:58:49.933Z,1002
2022-10-25T09:59:51.314Z,1002
2022-10-25T10:00:52.293Z,1001.9
2022-10-25T10:01:53.536Z,1002
2022-10-25T10:02:55.832Z,1002
2022-10-25T10:03:58.066Z,1001.9
2022-10-25T10:04:59.634Z,1002
2022-10-25T10:06:01.353Z,1001.9
2022-10-25T10:07:03.453Z,1001.9
2022-10-25T10:08:05.313Z,1001.9
2022-10-25T10:09:06.340Z,1001.9
2022-10-25T10:10:07.333Z,1001.9
2022-10-25T10:11:09.267Z,1001.9
2022-10-25T10:12:11.319Z,1002
2022-10-25T10:13:12.520Z,1002
2022-10-25T10:14:14.320Z,1002
2022-10-25T10:15:15.292Z,1002
2022-10-25T10:16:16.492Z,1002
2022-10-25T10:17:18.601Z,1002
2022-10-25T10:18:20.433Z,1002
2022-10-25T10:19:22.433Z,1001.9
2022-10-25T10:20:24.593Z,1001.9
2022-10-25T10:21:26.592Z,1002
2022-10-25T10:22:29.412Z,1001.9
2022-10-25T10:23:31.518Z,1001.9
2022-10-25T10:24:33.314Z,1001.9
2022-10-25T10:25:34.437Z,1002
2022-10-25T10:26:36.672Z,1002
2022-10-25T10:27:38.482Z,1002
2022-10-25T10:28:40.732Z,1002
2022-10-25T10:29:42.252Z,1002
2022-10-25T10:30:43.321Z,1002
2022-10-25T10:31:44.873Z,1002
2022-10-25T10:32:46.758Z,1002
2022-10-25T10:33:48.372Z,1002
2022-10-25T10:34:50.412Z,1002
2022-10-25T10:35:52.361Z,1002
2022-10-25T10:36:54.816Z,1002
2022-10-25T10:37:56.483Z,1002
2022-10-25T10:38:58.372Z,1002
2022-10-25T10:40:00.712Z,1002.2
2022-10-25T10:41:02.992Z,1002.2
2022-10-25T10:42:04.680Z,1002.1
2022-10-25T10:43:06.360Z,1002.1
2022-10-25T10:44:07.332Z,1002.1
2022-10-25T10:45:08.753Z,1002.1
2022-10-25T10:46:10.452Z,1002.1
2022-10-25T10:47:12.438Z,1002
2022-10-25T10:48:14.354Z,1002.1
2022-10-25T10:49:16.394Z,1002.1
2022-10-25T10:50:18.320Z,1002.1
2022-10-25T10:51:45.266Z,1002
2022-10-25T10:53:24.314Z,1002
2022-10-25T10:54:25.332Z,1002
2022-10-25T10:55:27.155Z,1002
2022-10-25T10:56:28.614Z,1002
2022-10-25T10:57:30.364Z,1002.2
2022-10-25T10:58:31.386Z,1002.1
2022-10-25T10:59:32.774Z,1002.1
2022-10-25T11:00:34.721Z,1002.1
2022-10-25T11:01:37.222Z,1002.2
2022-10-25T11:02:38.884Z,1002.2
2022-10-25T11:03:42.385Z,1002.2
2022-10-25T11:04:42.642Z,1002.3
2022-10-25T11:05:44.273Z,1002.2
2022-10-25T11:06:45.312Z,1002.2
2022-10-25T11:07:46.498Z,1002.1
2022-10-25T11:08:48.855Z,1002.2
2022-10-25T11:09:50.731Z,1002.3
2022-10-25T11:10:53.281Z,1002.3
2022-10-25T11:11:54.372Z,1002.3
2022-10-25T11:12:56.382Z,1002.3
2022-10-25T11:13:58.913Z,1002.3
2022-10-25T11:15:00.412Z,1002.3
2022-10-25T11:16:02.420Z,1002.3
2022-10-25T11:17:04.352Z,1002.3
2022-10-25T11:18:06.316Z,1002.3
2022-10-25T11:19:08.593Z,1002.3
2022-10-25T11:20:10.487Z,1002.3
2022-10-25T11:21:12.774Z,1002.3
2022-10-25T11:22:14.432Z,1002.2
2022-10-25T11:23:16.992Z,1002.2
2022-10-25T11:24:18.600Z,1002.2
2022-10-25T11:25:21.192Z,1002.2
2022-10-25T11:26:22.552Z,1002.3
2022-10-25T11:27:24.373Z,1002.3
2022-10-25T11:28:25.592Z,1002.3
2022-10-25T11:29:27.813Z,1002.3
2022-10-25T11:30:29.395Z,1002.2
2022-10-25T11:31:30.454Z,1002.3
2022-10-25T11:32:32.440Z,1002.3
2022-10-25T11:33:34.511Z,1002.2
2022-10-25T11:34:36.333Z,1002.3
2022-10-25T11:35:38.376Z,1002.3
2022-10-25T11:36:40.433Z,1002.2
2022-10-25T11:37:42.312Z,1002.2
2022-10-25T11:38:43.355Z,1002.3
2022-10-25T11:39:48.134Z,1002.2
2022-10-25T11:40:46.332Z,1002.2
2022-10-25T11:41:48.392Z,1002.2
2022-10-25T11:42:49.996Z,1002.2
2022-10-25T11:43:51.917Z,1002.1
2022-10-25T11:44:53.988Z,1002.1
2022-10-25T11:45:55.396Z,1002.2
2022-10-25T11:46:57.433Z,1002.2
2022-10-25T11:47:59.325Z,1002.2
2022-10-25T11:49:00.662Z,1002.2
2022-10-25T11:50:02.656Z,1002.2
2022-10-25T11:51:04.417Z,1002.3
2022-10-25T11:52:06.796Z,1002.2
2022-10-25T11:53:08.494Z,1002.2
2022-10-25T11:54:10.412Z,1002.3
2022-10-25T11:55:12.439Z,1002.2
2022-10-25T11:56:14.852Z,1002.2
2022-10-25T11:57:16.453Z,1002.2
2022-10-25T11:58:18.432Z,1002.2
2022-10-25T11:59:20.712Z,1002.2
2022-10-25T12:00:23.635Z,1002.2
2022-10-25T12:01:25.488Z,1002.3
2022-10-25T12:02:27.484Z,1002.3
2022-10-25T12:03:29.874Z,1002.2
2022-10-25T12:04:35.916Z,1002.2
2022-10-25T12:05:36.375Z,1002.2
2022-10-25T12:06:37.333Z,1002.2
2022-10-25T12:07:39.803Z,1002.1
2022-10-25T12:08:41.395Z,1002.1
2022-10-25T12:09:43.412Z,1002.1
2022-10-25T12:11:46.464Z,1002.3
2022-10-25T12:12:49.893Z,1002.3
2022-10-25T12:13:51.404Z,1002.3
2022-10-25T12:14:53.352Z,1002.3
2022-10-25T12:15:54.449Z,1002.4
2022-10-25T12:16:55.433Z,1001.7
2022-10-25T12:17:57.395Z,1002.1
2022-10-25T12:18:58.418Z,1002.3
2022-10-25T12:20:03.411Z,1002.3
2022-10-25T12:21:05.331Z,1002.3
2022-10-25T12:22:06.557Z,1002.3
2022-10-25T12:23:08.834Z,1002.4
2022-10-25T12:24:10.396Z,1002.3
2022-10-25T12:25:11.352Z,1002.3
2022-10-25T12:26:12.651Z,1002.3
2022-10-25T12:27:14.444Z,1002.2
2022-10-25T12:28:16.785Z,1002.2
2022-10-25T12:29:18.332Z,1002.2
2022-10-25T12:30:19.458Z,1002.2
2022-10-25T12:31:20.511Z,1002.2
2022-10-25T12:32:21.476Z,1002.2
2022-10-25T12:33:23.373Z,1002.2
2022-10-25T12:34:24.394Z,1002.1
2022-10-25T12:35:26.413Z,1002.1
2022-10-25T12:36:28.366Z,1002.1
2022-10-25T12:37:29.412Z,1002.1
2022-10-25T12:38:30.418Z,1002.1
2022-10-25T12:39:32.332Z,1002.1
2022-10-25T12:40:34.597Z,1002.1
2022-10-25T12:41:35.753Z,1002.1
2022-10-25T12:42:37.613Z,1002.2
2022-10-25T12:43:39.498Z,1002.3
2022-10-25T12:44:41.331Z,1002.3
2022-10-25T12:45:42.812Z,1002.3
2022-10-25T12:46:44.629Z,1002.3
2022-10-25T12:47:46.632Z,1002.3
2022-10-25T12:48:48.352Z,1001.9
2022-10-25T12:49:49.763Z,1002.3
2022-10-25T12:50:51.674Z,1002.3
2022-10-25T12:51:53.573Z,1002.3
2022-10-25T12:52:55.952Z,1002.3
2022-10-25T12:53:57.432Z,1002.4
2022-10-25T12:54:58.454Z,1002.4
2022-10-25T12:56:00.439Z,1002.4
2022-10-25T12:57:02.624Z,1002.4
2022-10-25T12:58:04.714Z,1002.4
2022-10-25T12:59:06.331Z,1002.3
2022-10-25T13:00:07.637Z,1002.4
2022-10-25T13:01:09.524Z,1002.4
2022-10-25T13:02:11.820Z,1002.5